Terminal Aerodrome Forecast
Issued by NWS Lake Charles, LA

Current Version | Previous Version | Text Only | Print | Product List | Glossary On
Versions: 1 2 3 4 5 6 7 8 9 10 11 12
113
FTUS44 KLCH 162320
TAFARA
TAF
KARA 162320Z 1700/1724 08007KT P6SM BKN025
     FM170600 12012KT P6SM VCSH BKN040
     FM170900 13014G20KT P6SM -SHRA OVC025
      TEMPO 1711/1715 2SM TSRA BR OVC007CB
     FM171500 01012KT P6SM -SHRA OVC025=

USA.gov is the U.S. government's official web portal to all federal, state and local government web resources and services.